Bristol, Maine
Current Conditions -  °F | °C
As of 3:53 AM on Monday 20 Oct 2014 (Local Time) from KIWI Reporting Station
Overcast Overcast  
Wind Chill: 43°   Ceiling: 4700
Heat Index: 43°   Visibility: 10mi
Dew Point: 30°   Wind: 0mph
Humidity: 60%   Direction: NA
Pressure: 29.92"   Gusts: NA
Location:  43.96°N, 69.51°W
Report Text: KIWI 200753Z AUTO 00000KT 10SM OVC047 06/M01 A2992 RMK AO2 SLP131 T00611011
Loading
Personal Weather Stations






























Interactive Weather Map
Tropical Storm Tracking
New forecast layout! Learn more

10-Day Weather Forecast

Advertisements
Track Severe Weather on mobile